sensor_id;sensor_type;location;lat;lon;timestamp;P1;durP1;ratioP1;P2;durP2;ratioP2
11998;SDS011;40817;51.520;9.954;2023-07-13T00:02:18;4.32;;;1.45;;
11998;SDS011;40817;51.520;9.954;2023-07-13T00:04:47;5.68;;;1.48;;
11998;SDS011;40817;51.520;9.954;2023-07-13T00:07:15;4.68;;;1.70;;
11998;SDS011;40817;51.520;9.954;2023-07-13T00:09:45;3.70;;;1.58;;
11998;SDS011;40817;51.520;9.954;2023-07-13T00:12:23;3.03;;;1.30;;
11998;SDS011;40817;51.520;9.954;2023-07-13T00:14:55;7.13;;;1.85;;
11998;SDS011;40817;51.520;9.954;2023-07-13T00:17:24;5.07;;;1.70;;
11998;SDS011;40817;51.520;9.954;2023-07-13T00:19:54;3.53;;;1.98;;
11998;SDS011;40817;51.520;9.954;2023-07-13T00:22:23;3.53;;;1.42;;
11998;SDS011;40817;51.520;9.954;2023-07-13T00:24:51;4.22;;;1.67;;
11998;SDS011;40817;51.520;9.954;2023-07-13T00:27:21;3.17;;;1.60;;
11998;SDS011;40817;51.520;9.954;2023-07-13T00:29:51;3.70;;;1.30;;
11998;SDS011;40817;51.520;9.954;2023-07-13T00:32:19;5.05;;;1.45;;
11998;SDS011;40817;51.520;9.954;2023-07-13T00:34:46;5.38;;;2.10;;
11998;SDS011;40817;51.520;9.954;2023-07-13T00:37:15;4.30;;;1.55;;
11998;SDS011;40817;51.520;9.954;2023-07-13T00:39:43;4.35;;;1.52;;
11998;SDS011;40817;51.520;9.954;2023-07-13T00:42:10;3.58;;;1.40;;
11998;SDS011;40817;51.520;9.954;2023-07-13T00:44:38;5.05;;;1.63;;
11998;SDS011;40817;51.520;9.954;2023-07-13T00:47:06;2.53;;;1.08;;
11998;SDS011;40817;51.520;9.954;2023-07-13T00:49:33;3.00;;;1.73;;
11998;SDS011;40817;51.520;9.954;2023-07-13T00:52:04;3.83;;;1.23;;
11998;SDS011;40817;51.520;9.954;2023-07-13T00:54:38;2.80;;;1.40;;
11998;SDS011;40817;51.520;9.954;2023-07-13T00:57:11;2.78;;;1.55;;
11998;SDS011;40817;51.520;9.954;2023-07-13T00:59:45;5.72;;;1.90;;
11998;SDS011;40817;51.520;9.954;2023-07-13T01:02:18;2.78;;;1.73;;
11998;SDS011;40817;51.520;9.954;2023-07-13T01:04:50;4.90;;;1.40;;
11998;SDS011;40817;51.520;9.954;2023-07-13T01:07:18;3.20;;;1.60;;
11998;SDS011;40817;51.520;9.954;2023-07-13T01:09:47;5.95;;;2.08;;
11998;SDS011;40817;51.520;9.954;2023-07-13T01:12:14;3.83;;;1.60;;
11998;SDS011;40817;51.520;9.954;2023-07-13T01:14:42;4.10;;;1.42;;
11998;SDS011;40817;51.520;9.954;2023-07-13T01:17:10;5.50;;;1.90;;
11998;SDS011;40817;51.520;9.954;2023-07-13T01:19:39;4.35;;;1.75;;
11998;SDS011;40817;51.520;9.954;2023-07-13T01:22:12;5.90;;;1.55;;
11998;SDS011;40817;51.520;9.954;2023-07-13T01:24:44;4.22;;;1.75;;
11998;SDS011;40817;51.520;9.954;2023-07-13T01:27:15;3.05;;;1.50;;
11998;SDS011;40817;51.520;9.954;2023-07-13T01:29:48;5.15;;;1.90;;
11998;SDS011;40817;51.520;9.954;2023-07-13T01:32:17;3.92;;;1.70;;
11998;SDS011;40817;51.520;9.954;2023-07-13T01:34:50;3.28;;;1.50;;
11998;SDS011;40817;51.520;9.954;2023-07-13T01:37:22;3.85;;;1.65;;
11998;SDS011;40817;51.520;9.954;2023-07-13T01:39:51;3.50;;;1.77;;
11998;SDS011;40817;51.520;9.954;2023-07-13T01:42:19;3.92;;;1.58;;
11998;SDS011;40817;51.520;9.954;2023-07-13T01:44:46;3.22;;;1.35;;
11998;SDS011;40817;51.520;9.954;2023-07-13T01:47:14;3.33;;;1.70;;
11998;SDS011;40817;51.520;9.954;2023-07-13T01:49:41;3.13;;;1.63;;
11998;SDS011;40817;51.520;9.954;2023-07-13T01:52:11;5.65;;;1.58;;
11998;SDS011;40817;51.520;9.954;2023-07-13T01:54:40;3.78;;;1.90;;
11998;SDS011;40817;51.520;9.954;2023-07-13T01:57:07;5.45;;;2.28;;
11998;SDS011;40817;51.520;9.954;2023-07-13T01:59:35;4.55;;;1.90;;
11998;SDS011;40817;51.520;9.954;2023-07-13T02:02:02;4.35;;;1.90;;
11998;SDS011;40817;51.520;9.954;2023-07-13T02:04:31;3.72;;;1.70;;
11998;SDS011;40817;51.520;9.954;2023-07-13T02:06:58;6.53;;;2.38;;
11998;SDS011;40817;51.520;9.954;2023-07-13T02:09:25;4.53;;;2.25;;
11998;SDS011;40817;51.520;9.954;2023-07-13T02:11:54;5.50;;;1.67;;
11998;SDS011;40817;51.520;9.954;2023-07-13T02:14:22;6.00;;;2.78;;
11998;SDS011;40817;51.520;9.954;2023-07-13T02:16:49;4.45;;;1.95;;
11998;SDS011;40817;51.520;9.954;2023-07-13T02:19:17;7.78;;;3.03;;
11998;SDS011;40817;51.520;9.954;2023-07-13T02:21:44;6.05;;;2.42;;
11998;SDS011;40817;51.520;9.954;2023-07-13T02:24:12;4.68;;;1.88;;
11998;SDS011;40817;51.520;9.954;2023-07-13T02:26:42;4.22;;;1.98;;
11998;SDS011;40817;51.520;9.954;2023-07-13T02:29:11;4.13;;;1.50;;
11998;SDS011;40817;51.520;9.954;2023-07-13T02:31:39;4.30;;;1.58;;
11998;SDS011;40817;51.520;9.954;2023-07-13T02:34:07;4.03;;;1.40;;
11998;SDS011;40817;51.520;9.954;2023-07-13T02:36:34;7.28;;;1.98;;
11998;SDS011;40817;51.520;9.954;2023-07-13T02:39:02;8.32;;;2.00;;
11998;SDS011;40817;51.520;9.954;2023-07-13T02:41:32;5.05;;;1.95;;
11998;SDS011;40817;51.520;9.954;2023-07-13T02:44:00;3.08;;;1.30;;
11998;SDS011;40817;51.520;9.954;2023-07-13T02:46:30;4.35;;;1.70;;
11998;SDS011;40817;51.520;9.954;2023-07-13T02:48:59;5.28;;;1.65;;
11998;SDS011;40817;51.520;9.954;2023-07-13T02:51:27;6.18;;;2.80;;
11998;SDS011;40817;51.520;9.954;2023-07-13T02:53:55;4.82;;;2.15;;
11998;SDS011;40817;51.520;9.954;2023-07-13T02:56:24;3.08;;;1.52;;
11998;SDS011;40817;51.520;9.954;2023-07-13T02:58:56;4.85;;;1.75;;
11998;SDS011;40817;51.520;9.954;2023-07-13T03:01:24;3.53;;;1.67;;
11998;SDS011;40817;51.520;9.954;2023-07-13T03:04:13;2.95;;;1.27;;
11998;SDS011;40817;51.520;9.954;2023-07-13T03:07:04;8.25;;;1.35;;
11998;SDS011;40817;51.520;9.954;2023-07-13T03:09:32;4.47;;;1.83;;
11998;SDS011;40817;51.520;9.954;2023-07-13T03:12:01;3.90;;;1.75;;
11998;SDS011;40817;51.520;9.954;2023-07-13T03:14:29;4.05;;;1.83;;
11998;SDS011;40817;51.520;9.954;2023-07-13T03:16:57;4.50;;;1.60;;
11998;SDS011;40817;51.520;9.954;2023-07-13T03:19:26;3.55;;;1.42;;
11998;SDS011;40817;51.520;9.954;2023-07-13T03:21:54;5.88;;;1.75;;
11998;SDS011;40817;51.520;9.954;2023-07-13T03:24:21;3.95;;;1.80;;
11998;SDS011;40817;51.520;9.954;2023-07-13T03:26:51;4.78;;;1.60;;
11998;SDS011;40817;51.520;9.954;2023-07-13T03:29:19;5.60;;;1.70;;
11998;SDS011;40817;51.520;9.954;2023-07-13T03:31:46;6.50;;;1.85;;
11998;SDS011;40817;51.520;9.954;2023-07-13T03:34:14;5.00;;;1.80;;
11998;SDS011;40817;51.520;9.954;2023-07-13T03:36:43;3.67;;;1.90;;
11998;SDS011;40817;51.520;9.954;2023-07-13T03:39:11;2.65;;;1.35;;
11998;SDS011;40817;51.520;9.954;2023-07-13T03:41:38;7.28;;;2.20;;
11998;SDS011;40817;51.520;9.954;2023-07-13T03:44:06;4.53;;;1.85;;
11998;SDS011;40817;51.520;9.954;2023-07-13T03:46:34;3.97;;;1.98;;
11998;SDS011;40817;51.520;9.954;2023-07-13T03:49:03;5.47;;;1.70;;
11998;SDS011;40817;51.520;9.954;2023-07-13T03:51:32;3.53;;;1.70;;
11998;SDS011;40817;51.520;9.954;2023-07-13T03:54:01;5.97;;;1.45;;
11998;SDS011;40817;51.520;9.954;2023-07-13T03:56:29;2.72;;;1.23;;
11998;SDS011;40817;51.520;9.954;2023-07-13T03:58:58;6.05;;;1.83;;
11998;SDS011;40817;51.520;9.954;2023-07-13T04:01:26;7.05;;;2.20;;
11998;SDS011;40817;51.520;9.954;2023-07-13T04:03:54;7.80;;;2.00;;
11998;SDS011;40817;51.520;9.954;2023-07-13T04:06:22;6.70;;;1.58;;
11998;SDS011;40817;51.520;9.954;2023-07-13T04:08:54;3.72;;;1.70;;
11998;SDS011;40817;51.520;9.954;2023-07-13T04:11:30;16.83;;;2.67;;
11998;SDS011;40817;51.520;9.954;2023-07-13T04:13:59;3.67;;;2.00;;
11998;SDS011;40817;51.520;9.954;2023-07-13T04:16:27;5.53;;;2.25;;
11998;SDS011;40817;51.520;9.954;2023-07-13T04:18:55;6.78;;;2.00;;
11998;SDS011;40817;51.520;9.954;2023-07-13T04:21:25;5.80;;;1.83;;
11998;SDS011;40817;51.520;9.954;2023-07-13T04:23:53;5.18;;;2.40;;
11998;SDS011;40817;51.520;9.954;2023-07-13T04:26:22;6.13;;;2.15;;
11998;SDS011;40817;51.520;9.954;2023-07-13T04:28:50;5.53;;;2.10;;
11998;SDS011;40817;51.520;9.954;2023-07-13T04:31:18;6.78;;;2.00;;
11998;SDS011;40817;51.520;9.954;2023-07-13T04:33:46;4.18;;;1.80;;
11998;SDS011;40817;51.520;9.954;2023-07-13T04:36:14;4.57;;;1.90;;
11998;SDS011;40817;51.520;9.954;2023-07-13T04:38:43;3.47;;;1.60;;
11998;SDS011;40817;51.520;9.954;2023-07-13T04:41:10;9.48;;;2.53;;
11998;SDS011;40817;51.520;9.954;2023-07-13T04:43:41;7.18;;;2.03;;
11998;SDS011;40817;51.520;9.954;2023-07-13T04:46:09;4.25;;;2.22;;
11998;SDS011;40817;51.520;9.954;2023-07-13T04:48:40;7.35;;;1.80;;
11998;SDS011;40817;51.520;9.954;2023-07-13T04:51:08;6.15;;;2.13;;
11998;SDS011;40817;51.520;9.954;2023-07-13T04:53:36;3.85;;;2.30;;
11998;SDS011;40817;51.520;9.954;2023-07-13T04:56:04;4.75;;;2.00;;
11998;SDS011;40817;51.520;9.954;2023-07-13T04:58:31;4.68;;;1.95;;
11998;SDS011;40817;51.520;9.954;2023-07-13T05:01:01;5.63;;;1.88;;
11998;SDS011;40817;51.520;9.954;2023-07-13T05:03:31;6.05;;;1.80;;
11998;SDS011;40817;51.520;9.954;2023-07-13T05:06:00;3.58;;;1.80;;
11998;SDS011;40817;51.520;9.954;2023-07-13T05:08:30;5.63;;;2.10;;
11998;SDS011;40817;51.520;9.954;2023-07-13T05:10:59;3.88;;;1.95;;
11998;SDS011;40817;51.520;9.954;2023-07-13T05:13:26;5.50;;;2.22;;
11998;SDS011;40817;51.520;9.954;2023-07-13T05:15:55;5.53;;;2.00;;
11998;SDS011;40817;51.520;9.954;2023-07-13T05:18:26;3.85;;;1.80;;
11998;SDS011;40817;51.520;9.954;2023-07-13T05:20:56;4.22;;;2.00;;
11998;SDS011;40817;51.520;9.954;2023-07-13T05:23:29;3.67;;;1.85;;
11998;SDS011;40817;51.520;9.954;2023-07-13T05:25:57;8.93;;;2.90;;
11998;SDS011;40817;51.520;9.954;2023-07-13T05:28:25;6.18;;;1.58;;
11998;SDS011;40817;51.520;9.954;2023-07-13T05:30:53;4.15;;;2.00;;
11998;SDS011;40817;51.520;9.954;2023-07-13T05:33:21;7.82;;;1.95;;
11998;SDS011;40817;51.520;9.954;2023-07-13T05:35:50;6.68;;;2.22;;
11998;SDS011;40817;51.520;9.954;2023-07-13T05:38:18;4.00;;;1.70;;
11998;SDS011;40817;51.520;9.954;2023-07-13T05:40:46;3.30;;;1.90;;
11998;SDS011;40817;51.520;9.954;2023-07-13T05:43:13;6.53;;;1.98;;
11998;SDS011;40817;51.520;9.954;2023-07-13T05:45:41;6.78;;;1.90;;
11998;SDS011;40817;51.520;9.954;2023-07-13T05:48:09;7.13;;;1.90;;
11998;SDS011;40817;51.520;9.954;2023-07-13T05:50:36;4.68;;;1.70;;
11998;SDS011;40817;51.520;9.954;2023-07-13T05:53:05;5.20;;;1.90;;
11998;SDS011;40817;51.520;9.954;2023-07-13T05:55:33;4.72;;;1.92;;
11998;SDS011;40817;51.520;9.954;2023-07-13T05:58:01;5.80;;;2.25;;
11998;SDS011;40817;51.520;9.954;2023-07-13T06:00:28;7.25;;;1.85;;
11998;SDS011;40817;51.520;9.954;2023-07-13T06:02:56;6.03;;;1.92;;
11998;SDS011;40817;51.520;9.954;2023-07-13T06:05:23;4.43;;;1.48;;
11998;SDS011;40817;51.520;9.954;2023-07-13T06:07:52;5.28;;;1.77;;
11998;SDS011;40817;51.520;9.954;2023-07-13T06:10:21;3.38;;;1.80;;
11998;SDS011;40817;51.520;9.954;2023-07-13T06:12:48;6.75;;;1.77;;
11998;SDS011;40817;51.520;9.954;2023-07-13T06:15:15;5.35;;;1.50;;
11998;SDS011;40817;51.520;9.954;2023-07-13T06:17:43;6.45;;;1.40;;
11998;SDS011;40817;51.520;9.954;2023-07-13T06:20:11;7.30;;;1.65;;
11998;SDS011;40817;51.520;9.954;2023-07-13T06:22:39;5.20;;;1.40;;
11998;SDS011;40817;51.520;9.954;2023-07-13T06:25:07;5.10;;;1.40;;
11998;SDS011;40817;51.520;9.954;2023-07-13T06:27:36;4.20;;;1.38;;
11998;SDS011;40817;51.520;9.954;2023-07-13T06:30:04;5.68;;;1.50;;
11998;SDS011;40817;51.520;9.954;2023-07-13T06:32:33;3.72;;;1.20;;
11998;SDS011;40817;51.520;9.954;2023-07-13T06:35:01;5.85;;;1.20;;
11998;SDS011;40817;51.520;9.954;2023-07-13T06:37:29;4.75;;;1.35;;
11998;SDS011;40817;51.520;9.954;2023-07-13T06:39:56;6.07;;;2.00;;
11998;SDS011;40817;51.520;9.954;2023-07-13T06:42:23;5.13;;;1.55;;
11998;SDS011;40817;51.520;9.954;2023-07-13T06:44:52;5.32;;;1.33;;
11998;SDS011;40817;51.520;9.954;2023-07-13T06:47:20;4.40;;;1.20;;
11998;SDS011;40817;51.520;9.954;2023-07-13T06:49:47;7.40;;;1.55;;
11998;SDS011;40817;51.520;9.954;2023-07-13T06:52:14;4.03;;;1.38;;
11998;SDS011;40817;51.520;9.954;2023-07-13T06:54:42;3.90;;;1.35;;
11998;SDS011;40817;51.520;9.954;2023-07-13T06:57:09;5.22;;;1.30;;
11998;SDS011;40817;51.520;9.954;2023-07-13T06:59:37;6.90;;;1.30;;
11998;SDS011;40817;51.520;9.954;2023-07-13T07:02:06;4.43;;;1.33;;
11998;SDS011;40817;51.520;9.954;2023-07-13T07:04:35;4.63;;;1.10;;
11998;SDS011;40817;51.520;9.954;2023-07-13T07:07:02;5.05;;;1.30;;
11998;SDS011;40817;51.520;9.954;2023-07-13T07:09:30;5.57;;;1.20;;
11998;SDS011;40817;51.520;9.954;2023-07-13T07:11:58;4.13;;;1.67;;
11998;SDS011;40817;51.520;9.954;2023-07-13T07:14:25;4.20;;;1.17;;
11998;SDS011;40817;51.520;9.954;2023-07-13T07:16:53;4.38;;;0.90;;
11998;SDS011;40817;51.520;9.954;2023-07-13T07:19:21;4.13;;;1.48;;
11998;SDS011;40817;51.520;9.954;2023-07-13T07:21:49;3.90;;;1.42;;
11998;SDS011;40817;51.520;9.954;2023-07-13T07:24:16;3.83;;;1.45;;
11998;SDS011;40817;51.520;9.954;2023-07-13T07:26:44;3.60;;;1.27;;
11998;SDS011;40817;51.520;9.954;2023-07-13T07:29:11;7.55;;;1.55;;
11998;SDS011;40817;51.520;9.954;2023-07-13T07:31:38;5.88;;;1.65;;
11998;SDS011;40817;51.520;9.954;2023-07-13T07:34:06;4.82;;;1.13;;
11998;SDS011;40817;51.520;9.954;2023-07-13T07:36:35;3.75;;;1.20;;
11998;SDS011;40817;51.520;9.954;2023-07-13T07:39:02;3.92;;;1.17;;
11998;SDS011;40817;51.520;9.954;2023-07-13T07:41:30;5.43;;;1.58;;
11998;SDS011;40817;51.520;9.954;2023-07-13T07:43:57;3.45;;;1.25;;
11998;SDS011;40817;51.520;9.954;2023-07-13T07:46:24;4.00;;;1.17;;
11998;SDS011;40817;51.520;9.954;2023-07-13T07:48:53;6.35;;;2.00;;
11998;SDS011;40817;51.520;9.954;2023-07-13T07:51:21;4.88;;;1.50;;
11998;SDS011;40817;51.520;9.954;2023-07-13T07:53:50;2.92;;;0.90;;
11998;SDS011;40817;51.520;9.954;2023-07-13T07:56:17;4.32;;;1.33;;
11998;SDS011;40817;51.520;9.954;2023-07-13T07:58:45;2.80;;;1.13;;
11998;SDS011;40817;51.520;9.954;2023-07-13T08:01:12;4.32;;;1.05;;
11998;SDS011;40817;51.520;9.954;2023-07-13T08:03:41;4.82;;;1.63;;
11998;SDS011;40817;51.520;9.954;2023-07-13T08:06:08;5.80;;;1.20;;
11998;SDS011;40817;51.520;9.954;2023-07-13T08:08:36;3.88;;;1.45;;
11998;SDS011;40817;51.520;9.954;2023-07-13T08:11:05;2.25;;;1.00;;
11998;SDS011;40817;51.520;9.954;2023-07-13T08:13:35;4.57;;;1.05;;
11998;SDS011;40817;51.520;9.954;2023-07-13T08:16:03;4.30;;;1.20;;
11998;SDS011;40817;51.520;9.954;2023-07-13T08:18:32;6.65;;;1.73;;
11998;SDS011;40817;51.520;9.954;2023-07-13T08:21:02;3.38;;;0.95;;
11998;SDS011;40817;51.520;9.954;2023-07-13T08:23:31;3.10;;;1.15;;
11998;SDS011;40817;51.520;9.954;2023-07-13T08:25:58;3.25;;;1.33;;
11998;SDS011;40817;51.520;9.954;2023-07-13T08:28:28;4.00;;;1.00;;
11998;SDS011;40817;51.520;9.954;2023-07-13T08:30:59;4.53;;;1.15;;
11998;SDS011;40817;51.520;9.954;2023-07-13T08:33:29;3.92;;;1.38;;
11998;SDS011;40817;51.520;9.954;2023-07-13T08:35:56;3.67;;;1.00;;
11998;SDS011;40817;51.520;9.954;2023-07-13T08:38:23;3.53;;;0.90;;
11998;SDS011;40817;51.520;9.954;2023-07-13T08:40:51;4.50;;;1.00;;
11998;SDS011;40817;51.520;9.954;2023-07-13T08:43:26;4.90;;;1.23;;
11998;SDS011;40817;51.520;9.954;2023-07-13T08:46:02;3.67;;;1.08;;
11998;SDS011;40817;51.520;9.954;2023-07-13T08:48:39;4.90;;;1.20;;
11998;SDS011;40817;51.520;9.954;2023-07-13T08:51:17;2.20;;;1.00;;
11998;SDS011;40817;51.520;9.954;2023-07-13T08:53:59;4.75;;;1.25;;
11998;SDS011;40817;51.520;9.954;2023-07-13T08:56:40;5.78;;;1.13;;
11998;SDS011;40817;51.520;9.954;2023-07-13T08:59:13;2.17;;;0.90;;
11998;SDS011;40817;51.520;9.954;2023-07-13T09:01:57;7.32;;;1.05;;
11998;SDS011;40817;51.520;9.954;2023-07-13T09:04:49;3.10;;;1.02;;
11998;SDS011;40817;51.520;9.954;2023-07-13T09:07:26;5.85;;;0.77;;
11998;SDS011;40817;51.520;9.954;2023-07-13T09:10:12;4.28;;;1.00;;
11998;SDS011;40817;51.520;9.954;2023-07-13T09:12:46;4.63;;;1.77;;
11998;SDS011;40817;51.520;9.954;2023-07-13T09:15:32;5.17;;;1.07;;
11998;SDS011;40817;51.520;9.954;2023-07-13T09:18:08;2.65;;;0.90;;
11998;SDS011;40817;51.520;9.954;2023-07-13T09:20:42;3.67;;;0.98;;
11998;SDS011;40817;51.520;9.954;2023-07-13T09:23:17;1.92;;;0.90;;
11998;SDS011;40817;51.520;9.954;2023-07-13T09:25:51;7.68;;;1.10;;
11998;SDS011;40817;51.520;9.954;2023-07-13T09:28:27;2.88;;;0.73;;
11998;SDS011;40817;51.520;9.954;2023-07-13T09:31:06;3.22;;;0.85;;
11998;SDS011;40817;51.520;9.954;2023-07-13T09:33:39;3.15;;;1.23;;
11998;SDS011;40817;51.520;9.954;2023-07-13T09:36:16;5.07;;;1.00;;
11998;SDS011;40817;51.520;9.954;2023-07-13T09:38:52;4.38;;;1.52;;
11998;SDS011;40817;51.520;9.954;2023-07-13T09:41:31;3.05;;;1.02;;
11998;SDS011;40817;51.520;9.954;2023-07-13T09:44:27;3.58;;;1.05;;
11998;SDS011;40817;51.520;9.954;2023-07-13T09:46:59;2.20;;;0.98;;
11998;SDS011;40817;51.520;9.954;2023-07-13T09:49:27;3.40;;;1.83;;
11998;SDS011;40817;51.520;9.954;2023-07-13T09:52:02;2.85;;;1.17;;
11998;SDS011;40817;51.520;9.954;2023-07-13T09:54:43;1.45;;;0.80;;
11998;SDS011;40817;51.520;9.954;2023-07-13T09:57:15;2.58;;;1.27;;
11998;SDS011;40817;51.520;9.954;2023-07-13T09:59:45;5.28;;;1.38;;
11998;SDS011;40817;51.520;9.954;2023-07-13T10:02:24;3.78;;;0.90;;
11998;SDS011;40817;51.520;9.954;2023-07-13T10:04:58;2.72;;;0.90;;
11998;SDS011;40817;51.520;9.954;2023-07-13T10:07:29;2.95;;;0.80;;
11998;SDS011;40817;51.520;9.954;2023-07-13T10:09:58;4.50;;;0.93;;
11998;SDS011;40817;51.520;9.954;2023-07-13T10:12:28;2.58;;;1.20;;
11998;SDS011;40817;51.520;9.954;2023-07-13T10:15:03;3.45;;;1.13;;
11998;SDS011;40817;51.520;9.954;2023-07-13T10:17:41;2.47;;;0.90;;
11998;SDS011;40817;51.520;9.954;2023-07-13T10:20:11;2.28;;;0.90;;
11998;SDS011;40817;51.520;9.954;2023-07-13T10:22:40;2.13;;;0.90;;
11998;SDS011;40817;51.520;9.954;2023-07-13T10:25:18;1.80;;;0.80;;
11998;SDS011;40817;51.520;9.954;2023-07-13T10:27:49;3.03;;;1.02;;
11998;SDS011;40817;51.520;9.954;2023-07-13T10:30:20;2.83;;;1.00;;
11998;SDS011;40817;51.520;9.954;2023-07-13T10:32:57;2.78;;;1.17;;
11998;SDS011;40817;51.520;9.954;2023-07-13T10:35:30;2.50;;;1.05;;
11998;SDS011;40817;51.520;9.954;2023-07-13T10:37:59;1.90;;;0.93;;
11998;SDS011;40817;51.520;9.954;2023-07-13T10:40:33;3.20;;;1.10;;
11998;SDS011;40817;51.520;9.954;2023-07-13T10:43:08;3.13;;;0.70;;
11998;SDS011;40817;51.520;9.954;2023-07-13T10:45:43;2.80;;;1.10;;
11998;SDS011;40817;51.520;9.954;2023-07-13T10:48:16;2.88;;;1.00;;
11998;SDS011;40817;51.520;9.954;2023-07-13T10:50:45;3.80;;;1.02;;
11998;SDS011;40817;51.520;9.954;2023-07-13T10:53:18;3.42;;;0.95;;
11998;SDS011;40817;51.520;9.954;2023-07-13T10:55:58;2.78;;;0.80;;
11998;SDS011;40817;51.520;9.954;2023-07-13T10:58:35;3.28;;;1.27;;
11998;SDS011;40817;51.520;9.954;2023-07-13T11:01:08;3.83;;;1.08;;
11998;SDS011;40817;51.520;9.954;2023-07-13T11:03:47;2.33;;;0.97;;
11998;SDS011;40817;51.520;9.954;2023-07-13T11:06:33;2.58;;;0.80;;
11998;SDS011;40817;51.520;9.954;2023-07-13T11:12:07;4.35;;;0.73;;
11998;SDS011;40817;51.520;9.954;2023-07-13T11:15:06;2.08;;;0.73;;
11998;SDS011;40817;51.520;9.954;2023-07-13T11:17:47;4.00;;;1.20;;
11998;SDS011;40817;51.520;9.954;2023-07-13T11:20:21;3.35;;;0.90;;
11998;SDS011;40817;51.520;9.954;2023-07-13T11:23:16;4.13;;;1.08;;
11998;SDS011;40817;51.520;9.954;2023-07-13T11:25:57;2.97;;;1.05;;
11998;SDS011;40817;51.520;9.954;2023-07-13T11:28:27;5.05;;;0.85;;
11998;SDS011;40817;51.520;9.954;2023-07-13T11:31:00;3.92;;;1.10;;
11998;SDS011;40817;51.520;9.954;2023-07-13T11:36:35;3.38;;;0.80;;
11998;SDS011;40817;51.520;9.954;2023-07-13T11:39:12;2.10;;;0.70;;
11998;SDS011;40817;51.520;9.954;2023-07-13T11:41:49;1.88;;;1.00;;
11998;SDS011;40817;51.520;9.954;2023-07-13T11:44:22;3.33;;;1.17;;
11998;SDS011;40817;51.520;9.954;2023-07-13T11:46:52;2.28;;;1.10;;
11998;SDS011;40817;51.520;9.954;2023-07-13T11:49:22;2.10;;;0.85;;
11998;SDS011;40817;51.520;9.954;2023-07-13T11:51:53;2.78;;;0.95;;
11998;SDS011;40817;51.520;9.954;2023-07-13T11:54:23;3.88;;;0.90;;
11998;SDS011;40817;51.520;9.954;2023-07-13T11:56:57;7.53;;;1.30;;
11998;SDS011;40817;51.520;9.954;2023-07-13T11:59:31;3.75;;;0.98;;
11998;SDS011;40817;51.520;9.954;2023-07-13T12:01:59;3.08;;;1.10;;
11998;SDS011;40817;51.520;9.954;2023-07-13T12:04:29;5.05;;;1.10;;
11998;SDS011;40817;51.520;9.954;2023-07-13T12:07:05;2.13;;;0.90;;
11998;SDS011;40817;51.520;9.954;2023-07-13T12:09:42;1.60;;;0.73;;
11998;SDS011;40817;51.520;9.954;2023-07-13T12:12:10;4.47;;;1.02;;
11998;SDS011;40817;51.520;9.954;2023-07-13T12:14:40;2.90;;;1.13;;
11998;SDS011;40817;51.520;9.954;2023-07-13T12:17:09;3.03;;;0.82;;
11998;SDS011;40817;51.520;9.954;2023-07-13T12:19:47;3.72;;;1.05;;
11998;SDS011;40817;51.520;9.954;2023-07-13T12:22:17;3.08;;;1.00;;
11998;SDS011;40817;51.520;9.954;2023-07-13T12:24:48;3.90;;;1.30;;
11998;SDS011;40817;51.520;9.954;2023-07-13T12:27:18;5.05;;;1.30;;
11998;SDS011;40817;51.520;9.954;2023-07-13T12:29:50;3.95;;;0.93;;
11998;SDS011;40817;51.520;9.954;2023-07-13T12:32:24;2.47;;;0.90;;
11998;SDS011;40817;51.520;9.954;2023-07-13T12:34:54;4.35;;;1.55;;
11998;SDS011;40817;51.520;9.954;2023-07-13T12:37:34;3.00;;;1.25;;
11998;SDS011;40817;51.520;9.954;2023-07-13T12:40:02;3.33;;;0.90;;
11998;SDS011;40817;51.520;9.954;2023-07-13T12:42:34;2.72;;;0.95;;
11998;SDS011;40817;51.520;9.954;2023-07-13T12:45:12;1.88;;;0.88;;
11998;SDS011;40817;51.520;9.954;2023-07-13T12:47:47;2.35;;;0.90;;
11998;SDS011;40817;51.520;9.954;2023-07-13T12:50:20;3.50;;;1.17;;
11998;SDS011;40817;51.520;9.954;2023-07-13T12:52:52;2.72;;;1.00;;
11998;SDS011;40817;51.520;9.954;2023-07-13T12:55:28;2.92;;;1.00;;
11998;SDS011;40817;51.520;9.954;2023-07-13T12:57:58;4.28;;;1.08;;
11998;SDS011;40817;51.520;9.954;2023-07-13T13:00:30;2.83;;;1.00;;
11998;SDS011;40817;51.520;9.954;2023-07-13T13:03:04;3.67;;;1.40;;
11998;SDS011;40817;51.520;9.954;2023-07-13T13:05:56;3.63;;;1.20;;
11998;SDS011;40817;51.520;9.954;2023-07-13T13:08:33;3.47;;;1.00;;
11998;SDS011;40817;51.520;9.954;2023-07-13T13:11:02;2.83;;;1.10;;
11998;SDS011;40817;51.520;9.954;2023-07-13T13:13:30;3.80;;;1.10;;
11998;SDS011;40817;51.520;9.954;2023-07-13T13:16:01;1.85;;;1.05;;
11998;SDS011;40817;51.520;9.954;2023-07-13T13:21:01;2.97;;;0.90;;
11998;SDS011;40817;51.520;9.954;2023-07-13T13:23:29;3.90;;;1.27;;
11998;SDS011;40817;51.520;9.954;2023-07-13T13:25:57;3.60;;;1.17;;
11998;SDS011;40817;51.520;9.954;2023-07-13T13:28:25;2.97;;;1.17;;
11998;SDS011;40817;51.520;9.954;2023-07-13T13:30:53;3.22;;;1.30;;
11998;SDS011;40817;51.520;9.954;2023-07-13T13:33:20;3.75;;;1.10;;
11998;SDS011;40817;51.520;9.954;2023-07-13T13:35:48;3.72;;;1.50;;
11998;SDS011;40817;51.520;9.954;2023-07-13T13:38:17;3.80;;;1.10;;
11998;SDS011;40817;51.520;9.954;2023-07-13T13:40:52;5.38;;;1.30;;
11998;SDS011;40817;51.520;9.954;2023-07-13T13:43:22;2.85;;;1.48;;
11998;SDS011;40817;51.520;9.954;2023-07-13T13:45:53;2.30;;;1.00;;
11998;SDS011;40817;51.520;9.954;2023-07-13T13:48:28;3.70;;;1.10;;
11998;SDS011;40817;51.520;9.954;2023-07-13T13:50:59;3.75;;;1.02;;
11998;SDS011;40817;51.520;9.954;2023-07-13T13:53:40;3.25;;;1.45;;
11998;SDS011;40817;51.520;9.954;2023-07-13T13:56:09;4.10;;;1.20;;
11998;SDS011;40817;51.520;9.954;2023-07-13T13:58:36;2.55;;;1.35;;
11998;SDS011;40817;51.520;9.954;2023-07-13T14:01:04;3.78;;;1.30;;
11998;SDS011;40817;51.520;9.954;2023-07-13T14:03:39;4.43;;;1.33;;
11998;SDS011;40817;51.520;9.954;2023-07-13T14:06:08;5.10;;;1.58;;
11998;SDS011;40817;51.520;9.954;2023-07-13T14:08:39;3.00;;;1.35;;
11998;SDS011;40817;51.520;9.954;2023-07-13T14:11:09;3.38;;;1.35;;
11998;SDS011;40817;51.520;9.954;2023-07-13T14:13:41;3.45;;;1.55;;
11998;SDS011;40817;51.520;9.954;2023-07-13T14:16:15;4.13;;;1.30;;
11998;SDS011;40817;51.520;9.954;2023-07-13T14:18:46;3.28;;;1.30;;
11998;SDS011;40817;51.520;9.954;2023-07-13T14:21:16;4.85;;;1.00;;
11998;SDS011;40817;51.520;9.954;2023-07-13T14:23:47;3.78;;;1.23;;
11998;SDS011;40817;51.520;9.954;2023-07-13T14:26:18;2.13;;;1.00;;
11998;SDS011;40817;51.520;9.954;2023-07-13T14:28:50;3.72;;;1.42;;
11998;SDS011;40817;51.520;9.954;2023-07-13T14:31:21;3.55;;;1.30;;
11998;SDS011;40817;51.520;9.954;2023-07-13T14:33:51;2.28;;;1.00;;
11998;SDS011;40817;51.520;9.954;2023-07-13T14:36:25;3.33;;;1.45;;
11998;SDS011;40817;51.520;9.954;2023-07-13T14:38:58;2.28;;;1.23;;
11998;SDS011;40817;51.520;9.954;2023-07-13T14:41:50;3.53;;;1.20;;
11998;SDS011;40817;51.520;9.954;2023-07-13T14:44:20;2.72;;;1.30;;
11998;SDS011;40817;51.520;9.954;2023-07-13T14:46:52;2.42;;;1.30;;
11998;SDS011;40817;51.520;9.954;2023-07-13T14:49:21;2.95;;;1.20;;
11998;SDS011;40817;51.520;9.954;2023-07-13T14:51:52;4.47;;;1.50;;
11998;SDS011;40817;51.520;9.954;2023-07-13T14:54:22;3.00;;;1.20;;
11998;SDS011;40817;51.520;9.954;2023-07-13T14:56:52;2.88;;;1.40;;
11998;SDS011;40817;51.520;9.954;2023-07-13T14:59:19;3.50;;;1.23;;
11998;SDS011;40817;51.520;9.954;2023-07-13T15:01:48;2.67;;;1.35;;
11998;SDS011;40817;51.520;9.954;2023-07-13T15:04:16;4.15;;;1.27;;
11998;SDS011;40817;51.520;9.954;2023-07-13T15:06:52;3.65;;;1.20;;
11998;SDS011;40817;51.520;9.954;2023-07-13T15:09:22;3.72;;;1.10;;
11998;SDS011;40817;51.520;9.954;2023-07-13T15:11:52;3.60;;;1.30;;
11998;SDS011;40817;51.520;9.954;2023-07-13T15:14:21;3.15;;;1.13;;
11998;SDS011;40817;51.520;9.954;2023-07-13T15:16:49;2.83;;;1.40;;
11998;SDS011;40817;51.520;9.954;2023-07-13T15:19:21;4.00;;;1.20;;